createdAt,value
2022-10-31T00:00:00.306Z,45.8
2022-10-31T00:01:00.319Z,45.7
2022-10-31T00:02:00.508Z,45.7
2022-10-31T00:03:00.728Z,45.7
2022-10-31T00:04:00.297Z,45.7
2022-10-31T00:05:00.311Z,45.8
2022-10-31T00:06:00.312Z,45.7
2022-10-31T00:07:00.304Z,45.7
2022-10-31T00:08:00.614Z,45.5
2022-10-31T00:09:00.301Z,45.5
2022-10-31T00:10:00.329Z,45.4
2022-10-31T00:11:00.349Z,45.4
2022-10-31T00:12:00.302Z,45.5
2022-10-31T00:13:00.665Z,45.7
2022-10-31T00:14:00.577Z,45.8
2022-10-31T00:15:00.350Z,45.8
2022-10-31T00:16:00.342Z,45.8
2022-10-31T00:17:00.506Z,45.9
2022-10-31T00:18:00.631Z,45.9
2022-10-31T00:19:00.284Z,45.9
2022-10-31T00:20:00.503Z,45.8
2022-10-31T00:21:00.384Z,45.9
2022-10-31T00:22:00.445Z,45.9
2022-10-31T00:23:00.309Z,45.8
2022-10-31T00:24:00.355Z,45.8
2022-10-31T00:25:00.328Z,45.7
2022-10-31T00:26:00.502Z,45.7
2022-10-31T00:27:00.298Z,45.6
2022-10-31T00:28:00.746Z,45.6
2022-10-31T00:29:00.322Z,45.6
2022-10-31T00:30:00.300Z,45.5
2022-10-31T00:31:00.314Z,45.4
2022-10-31T00:32:00.433Z,45.5
2022-10-31T00:33:00.533Z,45.5
2022-10-31T00:34:00.312Z,45.6
2022-10-31T00:35:00.309Z,45.7
2022-10-31T00:36:00.298Z,45.8
2022-10-31T00:37:00.307Z,45.8
2022-10-31T00:38:00.406Z,45.9
2022-10-31T00:39:00.300Z,45.8
2022-10-31T00:40:00.313Z,45.9
2022-10-31T00:41:00.300Z,46.0
2022-10-31T00:42:00.311Z,46.1
2022-10-31T00:43:00.559Z,46.4
2022-10-31T00:44:00.517Z,46.6
2022-10-31T00:45:00.311Z,46.6
2022-10-31T00:46:00.307Z,47.0
2022-10-31T00:47:00.539Z,47.6
2022-10-31T00:48:00.606Z,47.3
2022-10-31T00:49:00.310Z,47.3
2022-10-31T00:50:00.415Z,47.3
2022-10-31T00:51:00.281Z,47.4
2022-10-31T00:52:00.435Z,47.5
2022-10-31T00:53:00.295Z,47.7
2022-10-31T00:54:00.300Z,47.7
2022-10-31T00:55:00.310Z,47.7
2022-10-31T00:56:00.481Z,47.7
2022-10-31T00:57:00.305Z,48.0
2022-10-31T00:58:00.569Z,48.1
2022-10-31T00:59:00.373Z,48.0
2022-10-31T01:00:00.350Z,48.0
2022-10-31T01:01:00.348Z,48.0
2022-10-31T01:02:00.658Z,48.1
2022-10-31T01:03:00.864Z,48.1
2022-10-31T01:04:00.303Z,48.0
2022-10-31T01:05:00.354Z,48.0
2022-10-31T01:06:00.351Z,47.8
2022-10-31T01:07:00.388Z,47.7
2022-10-31T01:08:00.566Z,47.6
2022-10-31T01:09:00.342Z,47.6
2022-10-31T01:10:00.359Z,47.8
2022-10-31T01:11:00.293Z,47.8
2022-10-31T01:12:00.298Z,47.9
2022-10-31T01:13:00.533Z,48.0
2022-10-31T01:14:00.523Z,48.1
2022-10-31T01:15:00.290Z,48.0
2022-10-31T01:16:00.288Z,48.0
2022-10-31T01:17:00.354Z,48.3
2022-10-31T01:18:00.691Z,48.2
2022-10-31T01:19:00.285Z,48.2
2022-10-31T01:20:00.442Z,48.0
2022-10-31T01:21:00.275Z,47.8
2022-10-31T01:22:00.297Z,48.0
2022-10-31T01:23:00.280Z,47.9
2022-10-31T01:24:00.286Z,47.7
2022-10-31T01:25:00.307Z,47.6
2022-10-31T01:26:00.538Z,47.3
2022-10-31T01:27:00.287Z,46.9
2022-10-31T01:28:00.830Z,46.7
2022-10-31T01:29:00.318Z,46.6
2022-10-31T01:30:00.292Z,46.5
2022-10-31T01:31:00.316Z,46.5
2022-10-31T01:32:00.474Z,46.5
2022-10-31T01:33:00.554Z,46.5
2022-10-31T01:34:00.319Z,46.5
2022-10-31T01:35:00.315Z,46.5
2022-10-31T01:36:00.297Z,46.6
2022-10-31T01:37:00.318Z,46.5
2022-10-31T01:38:00.466Z,46.5
2022-10-31T01:39:00.337Z,46.6
2022-10-31T01:40:00.396Z,46.7
2022-10-31T01:41:00.318Z,46.8
2022-10-31T01:42:00.305Z,46.7
2022-10-31T01:43:00.687Z,46.7
2022-10-31T01:44:00.462Z,46.6
2022-10-31T01:45:00.343Z,46.6
2022-10-31T01:46:00.365Z,46.5
2022-10-31T01:47:00.359Z,46.4
2022-10-31T01:48:00.586Z,46.4
2022-10-31T01:49:00.490Z,46.4
2022-10-31T01:50:00.526Z,46.4
2022-10-31T01:51:00.328Z,46.3
2022-10-31T01:52:00.292Z,46.3
2022-10-31T01:53:00.301Z,46.5
2022-10-31T01:54:00.296Z,46.5
2022-10-31T01:55:00.278Z,46.7
2022-10-31T01:56:00.501Z,46.7
2022-10-31T01:57:00.408Z,46.7
2022-10-31T01:58:00.629Z,46.8
2022-10-31T01:59:00.283Z,46.8
2022-10-31T02:00:00.358Z,46.9
2022-10-31T02:01:03.345Z,46.9
2022-10-31T02:02:00.651Z,46.9
2022-10-31T02:03:00.838Z,47.1
2022-10-31T02:04:00.410Z,47.2
2022-10-31T02:05:00.300Z,47.4
2022-10-31T02:06:00.290Z,47.6
2022-10-31T02:07:00.369Z,47.5
2022-10-31T02:08:00.466Z,47.4
2022-10-31T02:09:00.325Z,47.6
2022-10-31T02:10:00.378Z,47.7
2022-10-31T02:11:00.378Z,47.9
2022-10-31T02:12:00.298Z,48.4
2022-10-31T02:13:00.813Z,48.3
2022-10-31T02:14:00.419Z,48.4
2022-10-31T02:15:00.395Z,48.4
2022-10-31T02:16:00.310Z,48.4
2022-10-31T02:17:00.334Z,48.5
2022-10-31T02:18:00.526Z,48.9
2022-10-31T02:19:00.455Z,48.8
2022-10-31T02:20:00.504Z,48.8
2022-10-31T02:21:00.381Z,48.8
2022-10-31T02:22:00.440Z,49.2
2022-10-31T02:23:00.339Z,49.5
2022-10-31T02:24:00.348Z,49.3
2022-10-31T02:25:00.285Z,49.2
2022-10-31T02:26:00.508Z,49.5
2022-10-31T02:27:00.315Z,49.5
2022-10-31T02:28:00.713Z,49.7
2022-10-31T02:29:00.290Z,49.8
2022-10-31T02:30:00.319Z,49.8
2022-10-31T02:31:00.292Z,49.9
2022-10-31T02:32:00.529Z,49.8
2022-10-31T02:33:00.661Z,49.7
2022-10-31T02:34:00.395Z,49.6
2022-10-31T02:35:00.300Z,49.9
2022-10-31T02:36:00.339Z,49.7
2022-10-31T02:37:00.304Z,49.4
2022-10-31T02:38:00.395Z,49.6
2022-10-31T02:39:00.320Z,49.7
2022-10-31T02:40:00.339Z,49.8
2022-10-31T02:41:00.313Z,50.0
2022-10-31T02:42:00.299Z,50.4
2022-10-31T02:43:00.483Z,50.5
2022-10-31T02:44:00.517Z,50.6
2022-10-31T02:45:00.362Z,50.7
2022-10-31T02:46:00.360Z,51.0
2022-10-31T02:47:00.357Z,50.9
2022-10-31T02:48:00.616Z,50.9
2022-10-31T02:49:00.515Z,50.9
2022-10-31T02:50:00.445Z,50.8
2022-10-31T02:51:00.309Z,50.8
2022-10-31T02:52:00.294Z,50.8
2022-10-31T02:53:00.307Z,50.8
2022-10-31T02:54:00.316Z,50.7
2022-10-31T02:55:00.282Z,50.6
2022-10-31T02:56:00.402Z,50.6
2022-10-31T02:57:00.283Z,50.6
2022-10-31T02:58:00.676Z,50.7
2022-10-31T02:59:00.303Z,50.7
2022-10-31T03:00:00.290Z,50.9
2022-10-31T03:01:00.386Z,50.8
2022-10-31T03:02:00.497Z,50.8
2022-10-31T03:03:00.585Z,50.7
2022-10-31T03:04:00.300Z,50.9
2022-10-31T03:05:00.546Z,50.9
2022-10-31T03:06:00.307Z,50.8
2022-10-31T03:07:00.291Z,50.8
2022-10-31T03:08:00.514Z,50.7
2022-10-31T03:09:00.292Z,50.8
2022-10-31T03:10:00.309Z,50.9
2022-10-31T03:11:00.313Z,50.9
2022-10-31T03:12:00.326Z,50.7
2022-10-31T03:13:00.577Z,50.6
2022-10-31T03:14:00.425Z,50.7
2022-10-31T03:15:00.314Z,50.6
2022-10-31T03:16:00.308Z,50.7
2022-10-31T03:17:00.305Z,50.8
2022-10-31T03:18:00.571Z,51.0
2022-10-31T03:19:00.370Z,51.2
2022-10-31T03:20:00.576Z,51.2
2022-10-31T03:21:00.300Z,51.3
2022-10-31T03:22:00.389Z,51.4
2022-10-31T03:23:00.336Z,51.3
2022-10-31T03:24:00.356Z,51.3
2022-10-31T03:25:00.311Z,51.4
2022-10-31T03:26:00.578Z,51.6
2022-10-31T03:27:00.376Z,51.5
2022-10-31T03:28:00.699Z,51.4
2022-10-31T03:29:00.295Z,51.3
2022-10-31T03:30:00.295Z,51.3
2022-10-31T03:31:02.329Z,51.4
2022-10-31T03:32:00.524Z,51.5
2022-10-31T03:33:00.549Z,51.8
2022-10-31T03:34:00.337Z,51.6
2022-10-31T03:35:00.329Z,51.5
2022-10-31T03:36:00.358Z,51.5
2022-10-31T03:37:00.294Z,51.6
2022-10-31T03:38:04.174Z,51.6
2022-10-31T03:39:00.312Z,51.6
2022-10-31T03:40:00.312Z,51.7
2022-10-31T03:41:00.327Z,51.7
2022-10-31T03:42:00.319Z,51.6
2022-10-31T03:43:00.640Z,51.6
2022-10-31T03:44:00.504Z,51.6
2022-10-31T03:45:00.295Z,51.5
2022-10-31T03:46:00.283Z,51.4
2022-10-31T03:47:00.294Z,51.5
2022-10-31T03:48:00.673Z,51.3
2022-10-31T03:49:00.312Z,51.4
2022-10-31T03:50:00.637Z,51.4
2022-10-31T03:51:00.497Z,51.4
2022-10-31T03:52:00.341Z,51.3
2022-10-31T03:53:00.306Z,51.3
2022-10-31T03:54:00.309Z,51.6
2022-10-31T03:55:00.287Z,51.4
2022-10-31T03:56:00.453Z,51.3
2022-10-31T03:57:00.302Z,51.2
2022-10-31T03:58:00.722Z,51.2
2022-10-31T03:59:00.301Z,51.2
2022-10-31T04:00:00.291Z,51.2
2022-10-31T04:01:00.419Z,51.1
2022-10-31T04:02:00.672Z,51.1
2022-10-31T04:03:00.613Z,51.4
2022-10-31T04:04:00.320Z,51.3
2022-10-31T04:05:00.294Z,51.1
2022-10-31T04:06:00.331Z,50.8
2022-10-31T04:07:00.340Z,50.5
2022-10-31T04:08:00.628Z,50.2
2022-10-31T04:09:00.306Z,49.9
2022-10-31T04:10:00.294Z,49.6
2022-10-31T04:11:00.319Z,49.3
2022-10-31T04:12:00.286Z,49.1
2022-10-31T04:13:00.733Z,48.9
2022-10-31T04:14:00.505Z,48.8
2022-10-31T04:15:00.295Z,48.7
2022-10-31T04:16:00.364Z,48.6
2022-10-31T04:17:00.324Z,48.5
2022-10-31T04:18:00.627Z,48.5
2022-10-31T04:19:01.213Z,48.6
2022-10-31T04:20:00.481Z,48.7
2022-10-31T04:21:00.534Z,48.7
2022-10-31T04:22:00.391Z,48.6
2022-10-31T04:23:00.306Z,48.5
2022-10-31T04:24:00.299Z,48.4
2022-10-31T04:25:00.324Z,48.3
2022-10-31T04:26:00.443Z,48.2
2022-10-31T04:27:00.310Z,48.0
2022-10-31T04:28:00.757Z,47.9
2022-10-31T04:29:00.315Z,47.6
2022-10-31T04:30:00.325Z,45.6
2022-10-31T04:31:00.319Z,42.0
2022-10-31T04:32:00.415Z,38.4
2022-10-31T04:33:00.635Z,35.4
2022-10-31T04:34:00.370Z,33.5
2022-10-31T04:35:00.390Z,31.6
2022-10-31T04:36:00.526Z,30.4
2022-10-31T04:37:00.288Z,29.0
2022-10-31T04:38:00.450Z,27.6
2022-10-31T04:39:00.403Z,26.5
2022-10-31T04:40:00.290Z,25.3
2022-10-31T04:41:00.378Z,24.2
2022-10-31T04:42:00.316Z,23.4
2022-10-31T04:43:00.594Z,22.6
2022-10-31T04:44:00.489Z,21.7
2022-10-31T04:45:00.297Z,20.9
2022-10-31T04:46:00.294Z,20.1
2022-10-31T04:47:00.346Z,19.2
2022-10-31T04:48:00.771Z,18.4
2022-10-31T04:49:00.284Z,17.8
2022-10-31T04:50:00.418Z,17.0
2022-10-31T04:51:00.296Z,16.5
2022-10-31T04:52:00.400Z,15.8
2022-10-31T04:53:00.318Z,15.5
2022-10-31T04:54:00.320Z,15.4
2022-10-31T04:55:00.373Z,15.0
2022-10-31T04:56:00.527Z,14.7
2022-10-31T04:57:00.364Z,14.3
2022-10-31T04:58:00.755Z,13.9
2022-10-31T04:59:00.294Z,13.7
2022-10-31T05:00:00.434Z,13.4
2022-10-31T05:01:00.435Z,13.1
2022-10-31T05:02:00.757Z,12.8
2022-10-31T05:03:00.766Z,12.2
2022-10-31T05:04:00.295Z,12.0
2022-10-31T05:05:00.310Z,11.8
2022-10-31T05:06:00.286Z,11.4
2022-10-31T05:07:00.450Z,11.2
2022-10-31T05:08:00.486Z,10.8
2022-10-31T05:09:00.377Z,10.4
2022-10-31T05:10:00.322Z,10.3
2022-10-31T05:11:04.181Z,10.0
2022-10-31T05:12:00.326Z,10.0
2022-10-31T05:13:00.766Z,9.8
2022-10-31T05:14:00.424Z,9.9
2022-10-31T05:15:00.359Z,9.6
2022-10-31T05:16:00.309Z,9.5
2022-10-31T05:17:00.295Z,9.2
2022-10-31T05:18:00.511Z,9.0
2022-10-31T05:19:00.278Z,8.9
2022-10-31T05:20:00.469Z,8.7
2022-10-31T05:21:00.298Z,8.5
2022-10-31T05:22:00.312Z,8.3
2022-10-31T05:23:00.468Z,8.0
2022-10-31T05:24:00.363Z,7.9
2022-10-31T05:25:00.297Z,7.8
2022-10-31T05:26:00.389Z,7.7
2022-10-31T05:27:00.301Z,7.4
2022-10-31T05:28:00.579Z,7.3
2022-10-31T05:29:00.291Z,7.2
2022-10-31T05:31:00.289Z,7.1
2022-10-31T05:32:00.483Z,7.1
2022-10-31T05:33:00.619Z,7.0
2022-10-31T05:34:00.310Z,6.9
2022-10-31T05:35:00.324Z,6.8
2022-10-31T05:36:00.308Z,6.8
2022-10-31T05:37:00.306Z,6.5
2022-10-31T05:38:00.540Z,6.4
2022-10-31T05:39:00.331Z,6.4
2022-10-31T05:40:05.294Z,6.3
2022-10-31T05:41:00.311Z,6.3
2022-10-31T05:42:00.323Z,6.2
2022-10-31T05:43:00.553Z,6.3
2022-10-31T05:44:00.501Z,6.1
2022-10-31T05:45:00.303Z,5.9
2022-10-31T05:46:00.334Z,5.7
2022-10-31T05:47:00.358Z,5.8
2022-10-31T05:48:00.689Z,5.8
2022-10-31T05:49:02.920Z,5.7
2022-10-31T05:50:00.530Z,5.7
2022-10-31T05:51:00.310Z,5.6
2022-10-31T05:52:00.299Z,5.5
2022-10-31T05:53:00.316Z,5.4
2022-10-31T05:54:00.299Z,5.2
2022-10-31T05:55:00.564Z,5.2
2022-10-31T05:56:00.373Z,5.2
2022-10-31T05:57:00.288Z,5.0
2022-10-31T05:58:00.674Z,5.0
2022-10-31T05:59:00.300Z,4.8
2022-10-31T06:00:00.309Z,4.5
2022-10-31T06:01:00.311Z,4.5
2022-10-31T06:02:00.436Z,4.5
2022-10-31T06:03:00.372Z,4.4
2022-10-31T06:04:00.300Z,4.4
2022-10-31T06:05:00.442Z,4.3
2022-10-31T06:06:00.344Z,4.1
2022-10-31T06:07:00.333Z,4.0
2022-10-31T06:08:00.700Z,4.0
2022-10-31T06:09:00.299Z,3.9
2022-10-31T06:10:00.455Z,3.8
2022-10-31T06:11:00.295Z,3.8
2022-10-31T06:12:00.289Z,3.8
2022-10-31T06:13:00.301Z,3.7
2022-10-31T06:14:00.414Z,3.7
2022-10-31T06:15:00.307Z,3.7
2022-10-31T06:16:00.278Z,3.6
2022-10-31T06:17:00.282Z,3.5
2022-10-31T06:18:00.575Z,3.2
2022-10-31T06:19:00.312Z,3.2
2022-10-31T06:20:00.468Z,3.1
2022-10-31T06:21:00.341Z,2.5
2022-10-31T06:22:00.304Z,2.8
2022-10-31T06:24:00.327Z,3.8
2022-10-31T06:25:00.434Z,6.1
2022-10-31T06:26:00.430Z,8.5
2022-10-31T06:27:00.400Z,10.1
2022-10-31T06:28:00.309Z,11.7
2022-10-31T06:29:03.152Z,13.1
2022-10-31T06:30:00.295Z,14.4
2022-10-31T06:31:00.367Z,15.7
2022-10-31T06:32:00.477Z,16.7
2022-10-31T06:33:00.570Z,17.6
2022-10-31T06:34:00.295Z,18.9
2022-10-31T06:35:00.276Z,19.8
2022-10-31T06:36:00.294Z,20.5
2022-10-31T06:37:00.322Z,21.5
2022-10-31T06:38:00.863Z,22.1
2022-10-31T06:39:00.280Z,22.7
2022-10-31T06:40:00.315Z,23.0
2022-10-31T06:41:00.453Z,23.2
2022-10-31T06:42:00.390Z,23.6
2022-10-31T06:43:00.291Z,25.0
2022-10-31T06:44:04.900Z,25.0
2022-10-31T06:45:00.316Z,25.1
2022-10-31T06:46:00.286Z,25.4
2022-10-31T06:47:00.395Z,25.9
2022-10-31T06:48:17.563Z,26.1
2022-10-31T06:49:00.290Z,26.1
2022-10-31T06:50:00.447Z,26.4
2022-10-31T06:51:00.277Z,26.6
2022-10-31T06:52:00.295Z,26.7
2022-10-31T06:53:00.386Z,27.1
2022-10-31T06:54:00.367Z,27.8
2022-10-31T06:55:00.316Z,27.8
2022-10-31T06:56:00.613Z,28.0
2022-10-31T06:57:00.465Z,28.2
2022-10-31T06:58:03.037Z,28.0
2022-10-31T06:59:00.302Z,28.2
2022-10-31T07:00:00.329Z,28.2
2022-10-31T07:01:00.453Z,28.4
2022-10-31T07:02:00.669Z,29.2
2022-10-31T07:03:00.350Z,29.9
2022-10-31T07:04:00.374Z,31.0
2022-10-31T07:05:00.329Z,31.6
2022-10-31T07:06:00.291Z,31.6
2022-10-31T07:07:00.273Z,31.6
2022-10-31T07:08:00.854Z,31.6
2022-10-31T07:09:00.328Z,32.3
2022-10-31T07:10:00.399Z,32.4
2022-10-31T07:11:00.314Z,32.1
2022-10-31T07:12:00.291Z,32.3
2022-10-31T07:13:00.631Z,32.0
2022-10-31T07:14:00.506Z,32.2
2022-10-31T07:15:00.346Z,32.0
2022-10-31T07:16:00.299Z,31.7
2022-10-31T07:17:00.289Z,30.7
2022-10-31T07:18:00.297Z,28.7
2022-10-31T07:19:00.287Z,26.0
2022-10-31T07:20:00.456Z,22.5
2022-10-31T07:21:00.314Z,19.4
2022-10-31T07:22:00.296Z,16.5
2022-10-31T07:23:00.632Z,14.8
2022-10-31T07:24:00.328Z,14.0
2022-10-31T07:25:00.335Z,12.3
2022-10-31T07:26:00.492Z,11.2
2022-10-31T07:28:00.622Z,9.2
2022-10-31T07:29:00.507Z,8.5
2022-10-31T07:30:00.525Z,8.2
2022-10-31T07:31:00.306Z,7.4
2022-10-31T07:32:00.399Z,6.7
2022-10-31T07:33:00.280Z,6.5
2022-10-31T07:34:00.291Z,6.9
2022-10-31T07:35:00.302Z,7.2
2022-10-31T07:36:00.298Z,6.8
2022-10-31T07:37:00.311Z,6.0
2022-10-31T07:38:00.771Z,6.2
2022-10-31T07:39:00.291Z,5.9
2022-10-31T07:40:00.326Z,5.8
2022-10-31T07:41:00.312Z,5.8
2022-10-31T07:42:00.318Z,5.9
2022-10-31T07:43:00.286Z,5.8
2022-10-31T07:44:00.588Z,5.2
2022-10-31T07:45:00.511Z,4.8
2022-10-31T07:46:00.517Z,4.9
2022-10-31T07:47:00.323Z,5.1
2022-10-31T07:48:00.445Z,5.0
2022-10-31T07:49:00.391Z,5.4
2022-10-31T07:50:00.632Z,5.3
2022-10-31T07:51:00.339Z,5.1
2022-10-31T07:52:00.374Z,4.9
2022-10-31T07:53:00.337Z,5.2
2022-10-31T07:54:00.427Z,5.1
2022-10-31T07:55:00.346Z,4.7
2022-10-31T07:56:00.473Z,4.8
2022-10-31T07:57:00.313Z,4.8
2022-10-31T07:58:00.605Z,4.5
2022-10-31T07:59:00.308Z,4.2
2022-10-31T08:00:00.558Z,4.2
2022-10-31T08:01:00.688Z,3.8
2022-10-31T08:02:00.544Z,3.7
2022-10-31T08:03:00.641Z,4.0
2022-10-31T08:04:00.361Z,4.2
2022-10-31T08:05:01.437Z,4.2
2022-10-31T08:06:00.314Z,4.2
2022-10-31T08:07:00.326Z,3.7
2022-10-31T08:08:00.650Z,3.9
2022-10-31T08:09:00.293Z,4.2
2022-10-31T08:10:00.284Z,3.9
2022-10-31T08:11:00.281Z,3.7
2022-10-31T08:12:00.293Z,3.6
2022-10-31T08:13:00.307Z,3.7
2022-10-31T08:14:00.488Z,3.7
2022-10-31T08:15:00.362Z,3.7
2022-10-31T08:16:00.330Z,3.3
2022-10-31T08:17:00.580Z,2.9
2022-10-31T08:18:00.743Z,2.6
2022-10-31T08:19:00.345Z,3.0
2022-10-31T08:20:00.773Z,2.7
2022-10-31T08:21:00.317Z,3.0
2022-10-31T08:22:00.373Z,2.7
2022-10-31T08:23:00.396Z,2.8
2022-10-31T08:24:00.294Z,3.1
2022-10-31T08:25:00.300Z,3.2
2022-10-31T08:26:00.504Z,3.3
2022-10-31T08:27:00.350Z,3.4
2022-10-31T08:28:00.634Z,3.3
2022-10-31T08:29:00.351Z,3.1
2022-10-31T08:30:00.411Z,3.1
2022-10-31T08:31:00.299Z,3.0
2022-10-31T08:32:00.563Z,2.9
2022-10-31T08:33:00.411Z,3.0
2022-10-31T08:34:00.404Z,3.2
2022-10-31T08:35:00.282Z,3.2
2022-10-31T08:36:00.335Z,3.2
2022-10-31T08:37:00.368Z,2.4
2022-10-31T08:38:00.819Z,3.1
2022-10-31T08:39:02.078Z,3.5
2022-10-31T08:40:00.332Z,3.6
2022-10-31T08:41:00.313Z,3.4
2022-10-31T08:42:00.456Z,3.5
2022-10-31T08:43:00.430Z,3.5
2022-10-31T08:44:00.766Z,3.3
2022-10-31T08:45:00.346Z,3.1
2022-10-31T08:46:00.302Z,3.0
2022-10-31T08:47:00.607Z,2.6
2022-10-31T08:48:00.743Z,2.8
2022-10-31T08:49:00.336Z,2.8
2022-10-31T08:50:00.506Z,3.1
2022-10-31T08:51:00.332Z,3.4
2022-10-31T08:52:00.339Z,3.3
2022-10-31T08:53:05.077Z,3.6
2022-10-31T08:54:00.315Z,3.9
2022-10-31T08:55:00.402Z,3.9
2022-10-31T08:56:00.491Z,4.0
2022-10-31T08:57:00.351Z,4.0
2022-10-31T08:58:00.815Z,3.8
2022-10-31T08:59:00.322Z,3.7
2022-10-31T09:00:00.332Z,3.4
2022-10-31T09:01:00.532Z,3.5
2022-10-31T09:02:00.703Z,3.6
2022-10-31T09:03:00.576Z,3.7
2022-10-31T09:04:00.322Z,3.8
2022-10-31T09:05:00.316Z,3.8
2022-10-31T09:06:00.491Z,3.7
2022-10-31T09:07:20.079Z,3.7
2022-10-31T09:08:00.843Z,3.5
2022-10-31T09:09:00.337Z,3.4
2022-10-31T09:10:00.284Z,3.1
2022-10-31T09:11:00.307Z,3.1
2022-10-31T09:12:00.286Z,3.5
2022-10-31T09:13:00.295Z,3.6
2022-10-31T09:14:00.592Z,3.6
2022-10-31T09:15:00.301Z,4.1
2022-10-31T09:16:00.290Z,3.9
2022-10-31T09:17:00.418Z,3.5
2022-10-31T09:18:00.775Z,3.5
2022-10-31T09:19:00.327Z,3.4
2022-10-31T09:20:00.433Z,3.4
2022-10-31T09:21:00.389Z,3.4
2022-10-31T09:22:00.358Z,3.6
2022-10-31T09:23:00.324Z,3.6
2022-10-31T09:24:00.379Z,3.8
2022-10-31T09:25:00.296Z,3.5
2022-10-31T09:26:00.525Z,3.4
2022-10-31T09:27:00.304Z,3.6
2022-10-31T09:28:00.605Z,3.5
2022-10-31T09:29:00.312Z,3.9
2022-10-31T09:30:00.308Z,4.1
2022-10-31T09:31:00.420Z,4.1
2022-10-31T09:32:00.506Z,4.2
2022-10-31T09:33:00.413Z,4.1
2022-10-31T09:34:00.308Z,3.9
2022-10-31T09:35:00.353Z,4.0
2022-10-31T09:36:00.385Z,4.2
2022-10-31T09:37:00.303Z,4.1
2022-10-31T09:38:00.785Z,4.0
2022-10-31T09:39:00.312Z,4.1
2022-10-31T09:40:00.314Z,4.1
2022-10-31T09:41:00.324Z,3.9
2022-10-31T09:42:00.291Z,4.1
2022-10-31T09:43:00.282Z,4.1
2022-10-31T09:44:00.497Z,4.2
2022-10-31T09:45:00.370Z,4.0
2022-10-31T09:46:00.324Z,4.1
2022-10-31T09:47:00.344Z,4.5
2022-10-31T09:48:00.710Z,4.5
2022-10-31T09:49:00.314Z,4.6
2022-10-31T09:50:00.605Z,4.6
2022-10-31T09:51:00.315Z,5.0
2022-10-31T09:52:00.372Z,4.9
2022-10-31T09:53:00.542Z,4.7
2022-10-31T09:54:00.342Z,4.4
2022-10-31T09:55:00.364Z,4.5
2022-10-31T09:56:00.434Z,4.5
2022-10-31T09:57:00.299Z,3.8
2022-10-31T09:58:00.313Z,3.7
2022-10-31T09:59:02.876Z,3.5
2022-10-31T10:00:00.380Z,3.4
2022-10-31T10:01:00.386Z,3.0
2022-10-31T10:02:02.089Z,3.1
2022-10-31T10:03:01.029Z,3.3
2022-10-31T10:04:00.303Z,3.3
2022-10-31T10:06:00.287Z,3.9
2022-10-31T10:07:00.315Z,3.8
2022-10-31T10:08:00.532Z,3.7
2022-10-31T10:09:00.306Z,3.3
2022-10-31T10:10:00.489Z,3.3
2022-10-31T10:11:00.295Z,3.1
2022-10-31T10:12:00.302Z,3.2
2022-10-31T10:13:03.432Z,3.0
2022-10-31T10:14:00.593Z,2.5
2022-10-31T10:15:00.313Z,2.9
2022-10-31T10:16:00.301Z,3.0
2022-10-31T10:17:00.307Z,3.3
2022-10-31T10:18:00.472Z,3.4
2022-10-31T10:19:00.452Z,3.4
2022-10-31T10:20:00.391Z,3.5
2022-10-31T10:21:00.349Z,3.5
2022-10-31T10:22:00.338Z,3.7
2022-10-31T10:23:00.771Z,3.8
2022-10-31T10:24:00.315Z,4.6
2022-10-31T10:25:00.326Z,4.2
2022-10-31T10:26:00.433Z,4.3
2022-10-31T10:27:00.292Z,4.2
2022-10-31T10:28:00.718Z,3.9
2022-10-31T10:29:00.358Z,3.9
2022-10-31T10:30:00.337Z,3.8
2022-10-31T10:31:00.308Z,3.7
2022-10-31T10:32:00.440Z,3.4
2022-10-31T10:33:00.319Z,3.5
2022-10-31T10:34:00.439Z,3.3
2022-10-31T10:35:00.437Z,3.5
2022-10-31T10:36:00.296Z,3.7
2022-10-31T10:37:00.281Z,3.3
2022-10-31T10:38:00.845Z,3.4
2022-10-31T10:39:00.283Z,3.2
2022-10-31T10:40:00.297Z,3.2
2022-10-31T10:41:00.298Z,3.4
2022-10-31T10:42:00.320Z,3.8
2022-10-31T10:43:00.290Z,3.7
2022-10-31T10:44:00.609Z,3.7
2022-10-31T10:45:00.308Z,3.7
2022-10-31T10:46:00.295Z,3.8
2022-10-31T10:47:00.293Z,4.0
2022-10-31T10:48:00.591Z,4.1
2022-10-31T10:49:00.283Z,4.3
2022-10-31T10:50:00.539Z,4.1
2022-10-31T10:51:00.334Z,3.8
2022-10-31T10:52:19.847Z,3.6
2022-10-31T10:53:00.283Z,3.6
2022-10-31T10:54:00.314Z,4.0
2022-10-31T10:55:00.301Z,4.4
2022-10-31T10:56:00.414Z,4.4
2022-10-31T10:57:00.309Z,4.2
2022-10-31T10:58:00.716Z,4.1
2022-10-31T10:59:00.299Z,4.5
2022-10-31T11:00:00.316Z,5.0
2022-10-31T11:01:00.414Z,5.2
2022-10-31T11:02:00.587Z,5.2
2022-10-31T11:03:00.691Z,5.2
2022-10-31T11:04:00.369Z,5.1
2022-10-31T11:05:00.560Z,4.8
2022-10-31T11:06:00.369Z,4.6
2022-10-31T11:07:00.393Z,4.7
2022-10-31T11:08:00.458Z,4.9
2022-10-31T11:09:00.321Z,5.1
2022-10-31T11:10:00.278Z,5.1
2022-10-31T11:11:00.294Z,5.1
2022-10-31T11:12:00.315Z,5.4
2022-10-31T11:13:00.564Z,5.2
2022-10-31T11:14:00.626Z,5.3
2022-10-31T11:15:00.301Z,5.2
2022-10-31T11:16:00.308Z,5.5
2022-10-31T11:17:00.284Z,5.8
2022-10-31T11:18:00.306Z,6.1
2022-10-31T11:19:00.295Z,6.4
2022-10-31T11:20:00.532Z,6.5
2022-10-31T11:21:00.437Z,7.1
2022-10-31T11:22:00.383Z,7.5
2022-10-31T11:23:00.447Z,7.8
2022-10-31T11:24:00.387Z,7.7
2022-10-31T11:25:00.297Z,7.9
2022-10-31T11:26:00.525Z,7.9
2022-10-31T11:27:00.319Z,7.8
2022-10-31T11:28:00.346Z,7.7
2022-10-31T11:29:00.405Z,7.7
2022-10-31T11:30:00.995Z,7.9
2022-10-31T11:31:00.330Z,8.3
2022-10-31T11:32:00.475Z,8.8
2022-10-31T11:33:00.750Z,9.1
2022-10-31T11:34:00.299Z,9.1
2022-10-31T11:35:00.525Z,9.2
2022-10-31T11:36:00.347Z,9.5
2022-10-31T11:37:00.294Z,9.5
2022-10-31T11:38:00.744Z,9.2
2022-10-31T11:39:00.333Z,9.5
2022-10-31T11:40:00.304Z,9.4
2022-10-31T11:41:00.305Z,9.4
2022-10-31T11:42:04.885Z,9.5
2022-10-31T11:43:00.290Z,10.7
2022-10-31T11:44:00.498Z,11.3
2022-10-31T11:45:00.322Z,12.0
2022-10-31T11:46:00.295Z,12.4
2022-10-31T11:47:00.305Z,13.1
2022-10-31T11:48:00.371Z,14.0
2022-10-31T11:49:00.319Z,14.8
2022-10-31T11:50:00.457Z,14.0
2022-10-31T11:51:00.320Z,14.2
2022-10-31T11:52:00.295Z,13.7
2022-10-31T11:53:00.303Z,13.4
2022-10-31T11:54:02.884Z,13.5
2022-10-31T11:55:00.330Z,13.3
2022-10-31T11:56:00.449Z,15.0
2022-10-31T11:57:00.317Z,15.5
2022-10-31T11:58:01.037Z,16.0
2022-10-31T11:59:00.332Z,16.5
2022-10-31T12:00:00.360Z,17.4
2022-10-31T12:01:00.320Z,17.8
2022-10-31T12:02:00.696Z,18.2
2022-10-31T12:03:00.700Z,18.0
2022-10-31T12:04:00.360Z,18.1
2022-10-31T12:05:00.559Z,18.5
2022-10-31T12:06:00.282Z,18.4
2022-10-31T12:07:00.315Z,18.8
2022-10-31T12:08:03.543Z,19.3
2022-10-31T12:09:00.284Z,19.4
2022-10-31T12:10:00.337Z,19.6
2022-10-31T12:11:00.308Z,19.9
2022-10-31T12:12:00.318Z,20.2
2022-10-31T12:13:00.927Z,20.1
2022-10-31T12:14:03.910Z,20.8
2022-10-31T12:15:00.283Z,20.7
2022-10-31T12:16:00.374Z,21.1
2022-10-31T12:17:00.296Z,21.5
2022-10-31T12:18:00.335Z,21.9
2022-10-31T12:19:00.351Z,22.0
2022-10-31T12:20:00.522Z,22.0
2022-10-31T12:21:00.294Z,22.2
2022-10-31T12:22:00.314Z,22.0
2022-10-31T12:23:00.460Z,22.1
2022-10-31T12:24:00.310Z,22.1
2022-10-31T12:25:00.342Z,22.3
2022-10-31T12:26:00.466Z,22.5
2022-10-31T12:27:00.291Z,22.3
2022-10-31T12:28:00.348Z,22.6
2022-10-31T12:29:00.438Z,22.7
2022-10-31T12:30:00.317Z,22.7
2022-10-31T12:31:00.417Z,22.4
2022-10-31T12:32:00.520Z,22.3
2022-10-31T12:33:00.555Z,22.2
2022-10-31T12:34:00.319Z,22.1
2022-10-31T12:35:00.538Z,22.0
2022-10-31T12:36:00.518Z,22.2
2022-10-31T12:37:00.376Z,22.0
2022-10-31T12:38:00.707Z,22.2
2022-10-31T12:39:00.316Z,22.2
2022-10-31T12:40:00.337Z,22.3
2022-10-31T12:41:00.315Z,22.2
2022-10-31T12:42:00.323Z,22.4
2022-10-31T12:43:00.695Z,22.7
2022-10-31T12:44:00.427Z,22.7
2022-10-31T12:45:00.300Z,22.8
2022-10-31T12:46:00.366Z,23.0
2022-10-31T12:47:00.429Z,23.1
2022-10-31T12:48:00.284Z,23.1
2022-10-31T12:49:00.299Z,23.1
2022-10-31T12:50:00.536Z,23.1
2022-10-31T12:51:00.407Z,23.2
2022-10-31T12:52:00.302Z,23.6
2022-10-31T12:53:00.725Z,24.0
2022-10-31T12:54:00.312Z,24.0
2022-10-31T12:55:00.310Z,23.9
2022-10-31T12:56:00.469Z,24.0
2022-10-31T12:57:00.289Z,24.2
2022-10-31T12:58:00.609Z,24.2
2022-10-31T12:59:00.349Z,24.2
2022-10-31T13:00:00.287Z,24.0
2022-10-31T13:01:00.372Z,23.9
2022-10-31T13:02:00.648Z,24.1
2022-10-31T13:03:00.322Z,24.3
2022-10-31T13:04:00.299Z,24.2
2022-10-31T13:05:00.348Z,24.7
2022-10-31T13:06:00.434Z,24.8
2022-10-31T13:07:00.303Z,25.2
2022-10-31T13:08:00.486Z,25.5
2022-10-31T13:09:00.313Z,25.8
2022-10-31T13:10:00.337Z,25.5
2022-10-31T13:12:00.358Z,25.2
2022-10-31T13:13:00.666Z,25.1
2022-10-31T13:14:00.460Z,25.2
2022-10-31T13:15:00.300Z,25.3
2022-10-31T13:16:00.320Z,25.4
2022-10-31T13:17:00.312Z,25.4
2022-10-31T13:18:00.316Z,25.4
2022-10-31T13:19:00.337Z,25.5
2022-10-31T13:20:00.491Z,25.9
2022-10-31T13:21:00.437Z,25.7
2022-10-31T13:22:00.307Z,25.8
2022-10-31T13:23:00.632Z,26.1
2022-10-31T13:24:00.329Z,26.7
2022-10-31T13:25:00.316Z,26.7
2022-10-31T13:26:00.588Z,26.6
2022-10-31T13:27:00.319Z,26.6
2022-10-31T13:28:00.292Z,26.8
2022-10-31T13:29:00.314Z,26.7
2022-10-31T13:30:00.294Z,27.1
2022-10-31T13:31:00.290Z,27.3
2022-10-31T13:32:00.438Z,27.1
2022-10-31T13:33:00.592Z,27.0
2022-10-31T13:34:00.327Z,27.2